Time;durP1;ratioP1;P1;durP2;ratioP2;P2;SDS_P1;SDS_P2;PMS_P1;PMS_P2;Temp;Humidity;BMP_temperature;BMP_pressure;BME280_temperature;BME280_humidity;BME280_pressure;Samples;Min_cycle;Max_cycle;Signal;HPM_P1;HPM_P2
2023/06/08 00:00:10;;;;;;;4.65;3.10;;;;;;;17.78;72.69;100746.63;1661982;86;21041;-66
2023/06/08 00:02:43;;;;;;;3.47;2.70;;;;;;;17.73;73.44;100747.33;1662080;85;21053;-66
2023/06/08 00:05:13;;;;;;;6.35;3.00;;;;;;;17.68;74.24;100740.81;1662005;85;21508;-65
2023/06/08 00:07:42;;;;;;;5.03;3.02;;;;;;;17.61;75.06;100733.10;1663066;85;21493;-66
2023/06/08 00:10:11;;;;;;;5.92;2.83;;;;;;;17.54;75.96;100740.09;1662120;85;21076;-64
2023/06/08 00:12:40;;;;;;;4.40;3.00;;;;;;;17.47;76.46;100744.89;1662612;85;21077;-66
2023/06/08 00:15:10;;;;;;;4.97;3.15;;;;;;;17.41;77.34;100743.90;1662080;85;21041;-65
2023/06/08 00:17:39;;;;;;;4.65;2.87;;;;;;;17.34;78.12;100738.99;1661759;85;21089;-65
2023/06/08 00:20:09;;;;;;;7.03;3.00;;;;;;;17.30;78.58;100738.31;1662967;85;21061;-65
2023/06/08 00:22:37;;;;;;;6.95;2.98;;;;;;;17.29;79.09;100733.31;1662369;86;21119;-66
2023/06/08 00:25:07;;;;;;;4.37;3.12;;;;;;;17.30;78.95;100727.23;1662152;86;21049;-64
2023/06/08 00:27:35;;;;;;;4.62;3.00;;;;;;;17.31;78.87;100730.30;1662185;85;21056;-63
2023/06/08 00:30:06;;;;;;;5.47;3.33;;;;;;;17.35;78.80;100726.83;1661798;85;21077;-64
2023/06/08 00:32:36;;;;;;;4.40;2.67;;;;;;;17.38;78.39;100724.13;1662193;86;21539;-66
2023/06/08 00:35:07;;;;;;;4.50;3.12;;;;;;;17.39;77.89;100723.05;1662062;86;21505;-65
2023/06/08 00:37:36;;;;;;;3.95;2.90;;;;;;;17.43;77.44;100717.34;1662178;85;21112;-65
2023/06/08 00:40:07;;;;;;;4.72;3.00;;;;;;;17.48;76.98;100730.49;1662156;85;21041;-65
2023/06/08 00:42:36;;;;;;;4.25;2.95;;;;;;;17.50;77.17;100729.72;1661713;85;21535;-64
2023/06/08 00:45:05;;;;;;;4.80;3.00;;;;;;;17.48;77.61;100733.27;1662484;85;21128;-65
2023/06/08 00:47:36;;;;;;;4.35;2.83;;;;;;;17.46;77.91;100728.50;1643337;86;21477;-65
2023/06/08 00:50:08;;;;;;;3.87;3.15;;;;;;;17.45;78.27;100729.04;1655295;85;21097;-65
2023/06/08 00:52:39;;;;;;;5.20;3.02;;;;;;;17.44;78.16;100728.73;1645330;86;21136;-65
2023/06/08 00:55:08;;;;;;;3.83;3.00;;;;;;;17.42;77.27;100735.05;1645341;87;21084;-64
2023/06/08 00:57:37;;;;;;;5.60;3.00;;;;;;;17.42;77.10;100727.58;1644931;87;21105;-65
2023/06/08 01:00:11;;;;;;;5.25;2.65;;;;;;;17.41;76.97;100723.66;1645817;86;21665;-64
2023/06/08 01:02:39;;;;;;;3.83;2.72;;;;;;;17.41;76.43;100713.97;1645464;86;21157;-64
2023/06/08 01:05:09;;;;;;;6.58;2.98;;;;;;;17.41;76.30;100710.66;1645287;87;21057;-65
2023/06/08 01:07:58;;;;;;;5.03;2.60;;;;;;;17.41;76.09;100711.20;1645604;87;21033;-65
2023/06/08 01:10:43;;;;;;;3.80;3.05;;;;;;;17.44;75.67;100718.50;1626508;86;21022;-66
2023/06/08 01:13:29;;;;;;;4.35;2.50;;;;;;;17.46;75.28;100718.27;1645422;87;21073;-64
2023/06/08 01:16:03;;;;;;;3.92;2.90;;;;;;;17.44;75.57;100714.34;1645333;86;21046;-65
2023/06/08 01:18:38;;;;;;;5.55;2.90;;;;;;;17.42;75.96;100707.34;1645385;87;21082;-65
2023/06/08 01:21:40;;;;;;;5.78;3.17;;;;;;;17.40;76.47;100717.28;1645663;87;21505;-64
2023/06/08 01:24:15;;;;;;;3.10;2.80;;;;;;;17.37;77.16;100709.98;1645484;87;21085;-65
2023/06/08 01:26:49;;;;;;;4.07;2.73;;;;;;;17.27;76.80;100706.92;1645926;87;21077;-64
2023/06/08 01:29:21;;;;;;;3.72;2.92;;;;;;;17.24;77.02;100709.62;1645551;87;21077;-65
2023/06/08 01:31:50;;;;;;;4.15;2.70;;;;;;;17.24;77.39;100711.01;1645457;87;21117;-65
2023/06/08 01:34:19;;;;;;;3.47;2.50;;;;;;;17.23;77.65;100706.55;1645460;86;21070;-64
2023/06/08 01:37:19;;;;;;;4.35;2.80;;;;;;;17.21;77.40;100722.55;1645999;87;21515;-65
2023/06/08 01:40:02;;;;;;;3.83;2.90;;;;;;;17.24;77.63;100712.94;1645722;86;21021;-65
2023/06/08 01:42:33;;;;;;;3.60;2.65;;;;;;;17.24;77.48;100723.47;1644551;87;21026;-65
2023/06/08 01:45:12;;;;;;;4.00;3.20;;;;;;;17.24;77.32;100726.24;1645301;87;21056;-64
2023/06/08 01:47:55;;;;;;;3.42;2.77;;;;;;;17.22;77.31;100723.40;1645390;87;21132;-65
2023/06/08 01:50:24;;;;;;;4.37;3.08;;;;;;;17.21;76.90;100730.02;1637162;86;21120;-65
2023/06/08 01:52:52;;;;;;;3.90;2.80;;;;;;;17.20;76.62;100729.70;1645531;87;21062;-64
2023/06/08 01:55:22;;;;;;;6.10;2.67;;;;;;;17.19;76.67;100720.55;1613439;87;21110;-63
2023/06/08 01:57:50;;;;;;;3.52;2.75;;;;;;;17.23;76.49;100732.02;1653240;87;21082;-64
2023/06/08 02:00:19;;;;;;;5.40;2.90;;;;;;;17.24;76.25;100726.78;1652548;86;21063;-64
2023/06/08 02:02:48;;;;;;;5.20;2.98;;;;;;;17.24;76.43;100727.63;1650632;87;21003;-63
2023/06/08 02:05:17;;;;;;;4.33;2.60;;;;;;;17.24;76.92;100734.55;1649787;86;21077;-63
2023/06/08 02:07:46;;;;;;;3.17;2.70;;;;;;;17.21;76.80;100725.32;1649978;87;21074;-65
2023/06/08 02:10:16;;;;;;;5.80;3.42;;;;;;;17.23;77.05;100733.40;1649659;85;21066;-64
2023/06/08 02:12:45;;;;;;;4.05;3.10;;;;;;;17.22;77.14;100730.32;1649631;87;21494;-64
2023/06/08 02:15:13;;;;;;;7.45;3.50;;;;;;;17.24;77.07;100725.39;1649792;87;21070;-65
2023/06/08 02:17:44;;;;;;;6.33;3.30;;;;;;;17.24;76.80;100733.16;1649830;87;21046;-65
2023/06/08 02:20:14;;;;;;;3.75;2.98;;;;;;;17.25;76.77;100731.23;1650011;87;21502;-63
2023/06/08 02:22:45;;;;;;;4.85;2.90;;;;;;;17.24;76.77;100729.02;1649993;86;21090;-64
2023/06/08 02:25:13;;;;;;;4.53;3.10;;;;;;;17.24;76.79;100726.24;1649998;87;21050;-65
2023/06/08 02:27:43;;;;;;;5.72;3.10;;;;;;;17.25;76.41;100727.93;1649980;87;21046;-63
2023/06/08 02:30:13;;;;;;;4.55;2.92;;;;;;;17.29;76.05;100733.84;1649863;87;21066;-65
2023/06/08 02:32:45;;;;;;;4.58;2.60;;;;;;;17.31;75.42;100729.77;1649847;86;21081;-64
2023/06/08 02:35:13;;;;;;;4.80;3.02;;;;;;;17.31;74.97;100730.30;1650006;87;21085;-65
2023/06/08 02:37:44;;;;;;;4.97;3.00;;;;;;;17.34;74.77;100736.76;1649779;87;21054;-65
2023/06/08 02:40:13;;;;;;;5.28;3.20;;;;;;;17.37;74.47;100734.91;1649972;87;21121;-64
2023/06/08 02:42:42;;;;;;;6.20;3.02;;;;;;;17.36;74.29;100736.83;1631518;87;21062;-64
2023/06/08 02:45:12;;;;;;;4.17;2.95;;;;;;;17.37;74.30;100738.52;1649907;86;21046;-64
2023/06/08 02:47:41;;;;;;;5.50;2.95;;;;;;;17.39;74.20;100734.13;1649930;87;21070;-65
2023/06/08 02:50:10;;;;;;;5.70;3.45;;;;;;;17.41;74.24;100736.97;1654912;84;21128;-64
2023/06/08 02:52:40;;;;;;;5.33;3.80;;;;;;;17.44;74.57;100729.58;1680987;85;21145;-63
2023/06/08 02:55:09;;;;;;;5.72;3.15;;;;;;;17.48;74.91;100729.11;1681008;85;21040;-63
2023/06/08 02:57:38;;;;;;;4.97;2.90;;;;;;;17.49;74.72;100739.11;1680817;85;21017;-64
2023/06/08 03:00:12;;;;;;;5.28;2.85;;;;;;;17.50;74.24;100733.88;1681104;85;21044;-64
2023/06/08 03:02:42;;;;;;;4.37;2.85;;;;;;;17.50;74.27;100734.72;1679325;85;21494;-64
2023/06/08 03:05:13;;;;;;;4.55;2.70;;;;;;;17.52;74.46;100731.71;1681000;85;21029;-65
2023/06/08 03:07:42;;;;;;;4.42;3.00;;;;;;;17.50;74.26;100731.95;1680822;85;21105;-64
2023/06/08 03:10:12;;;;;;;5.85;3.40;;;;;;;17.52;74.69;100730.33;1680988;85;21076;-65
2023/06/08 03:12:41;;;;;;;6.15;3.40;;;;;;;17.52;75.11;100731.71;1680994;85;21075;-65
2023/06/08 03:15:11;;;;;;;3.58;2.98;;;;;;;17.53;75.50;100721.78;1681025;85;21072;-67
2023/06/08 03:17:42;;;;;;;6.90;3.20;;;;;;;17.57;75.22;100726.34;1680872;85;21090;-66
2023/06/08 03:20:12;;;;;;;4.35;3.00;;;;;;;17.62;74.15;100727.87;1672326;85;21045;-69
2023/06/08 03:22:45;;;;;;;6.75;3.30;;;;;;;17.67;74.45;100730.27;1679241;85;21109;-65
2023/06/08 03:25:16;;;;;;;8.53;3.37;;;;;;;17.65;74.56;100735.17;1679337;85;21028;-66
2023/06/08 03:27:46;;;;;;;4.83;3.30;;;;;;;17.63;74.78;100726.78;1681042;85;21092;-66
2023/06/08 03:30:15;;;;;;;7.72;2.80;;;;;;;17.61;74.97;100727.56;1680843;85;21450;-70
2023/06/08 03:32:51;;;;;;;4.83;3.25;;;;;;;17.59;75.06;100723.64;1680776;85;21192;-66
2023/06/08 03:35:21;;;;;;;5.78;3.20;;;;;;;17.59;74.84;100726.95;1680485;85;21068;-65
2023/06/08 03:37:52;;;;;;;4.92;3.00;;;;;;;17.60;74.55;100723.10;1679729;85;21414;-65
2023/06/08 03:40:21;;;;;;;4.08;3.10;;;;;;;17.61;74.72;100725.64;1680771;85;21041;-66
2023/06/08 03:42:50;;;;;;;5.25;3.20;;;;;;;17.65;74.98;100726.01;1680999;85;21080;-65
2023/06/08 03:45:21;;;;;;;4.85;3.12;;;;;;;17.67;75.29;100725.27;1680978;85;21120;-67
2023/06/08 03:47:51;;;;;;;5.70;3.20;;;;;;;17.69;75.68;100727.26;1681007;85;21075;-65
2023/06/08 03:50:22;;;;;;;5.80;3.40;;;;;;;17.67;76.01;100730.27;1675425;85;21076;-66
2023/06/08 03:52:51;;;;;;;6.08;3.45;;;;;;;17.69;76.78;100734.19;1645370;87;21121;-66
2023/06/08 03:55:21;;;;;;;6.33;4.15;;;;;;;17.70;77.16;100731.72;1645409;86;21037;-65
2023/06/08 03:57:50;;;;;;;4.30;3.25;;;;;;;17.71;77.38;100731.48;1645469;86;21112;-67
2023/06/08 04:00:20;;;;;;;6.00;3.20;;;;;;;17.73;77.51;100728.47;1645510;87;21105;-66
2023/06/08 04:02:51;;;;;;;5.83;3.62;;;;;;;17.76;77.56;100728.54;1645572;87;21113;-67
2023/06/08 04:05:22;;;;;;;6.28;3.75;;;;;;;17.76;77.72;100724.38;1645364;87;21153;-66
2023/06/08 04:07:51;;;;;;;6.08;4.00;;;;;;;17.73;78.05;100725.70;1645728;87;21084;-67
2023/06/08 04:10:20;;;;;;;4.90;3.42;;;;;;;17.74;78.40;100728.78;1645784;87;21150;-67
2023/06/08 04:12:49;;;;;;;6.28;3.35;;;;;;;17.73;78.60;100730.70;1613408;89;21529;-66
2023/06/08 04:15:18;;;;;;;9.00;3.90;;;;;;;17.74;78.40;100724.63;1613652;88;21077;-66
2023/06/08 04:17:49;;;;;;;5.50;3.52;;;;;;;17.73;77.55;100730.70;1613489;89;21061;-65
2023/06/08 04:20:19;;;;;;;6.37;3.37;;;;;;;17.76;76.17;100730.77;1613298;88;21064;-64
2023/06/08 04:22:48;;;;;;;6.40;3.50;;;;;;;17.78;75.58;100727.77;1645375;86;21047;-63
2023/06/08 04:25:17;;;;;;;5.05;4.00;;;;;;;17.82;75.33;100724.28;1649640;86;21138;-65
2023/06/08 04:27:46;;;;;;;4.62;3.62;;;;;;;17.87;74.81;100732.72;1644464;87;21065;-65
2023/06/08 04:30:15;;;;;;;6.35;3.67;;;;;;;17.91;74.35;100727.01;1645498;87;21080;-65
2023/06/08 04:32:46;;;;;;;6.03;3.33;;;;;;;17.96;74.54;100724.37;1645421;86;21053;-65
2023/06/08 04:35:15;;;;;;;5.92;3.42;;;;;;;18.00;74.22;100724.73;1613577;89;21057;-66
2023/06/08 04:37:44;;;;;;;4.35;3.47;;;;;;;18.02;72.88;100722.02;1649053;87;21072;-65
2023/06/08 04:40:13;;;;;;;7.03;3.55;;;;;;;18.05;72.19;100720.16;1645568;87;21121;-65
2023/06/08 04:42:44;;;;;;;5.87;3.58;;;;;;;18.10;72.13;100720.83;1645453;86;21045;-65
2023/06/08 04:45:12;;;;;;;5.25;3.55;;;;;;;18.15;71.63;100716.80;1645352;87;21037;-66
2023/06/08 04:47:44;;;;;;;7.37;4.00;;;;;;;18.18;71.35;100711.31;1645581;86;21491;-65
2023/06/08 04:50:13;;;;;;;6.17;3.90;;;;;;;18.17;71.63;100716.55;1645353;86;21156;-64
2023/06/08 04:52:45;;;;;;;4.95;3.90;;;;;;;18.18;71.68;100710.77;1638920;86;21490;-65
2023/06/08 04:55:13;;;;;;;4.87;3.60;;;;;;;18.26;71.22;100717.91;1649784;87;21054;-65
2023/06/08 04:57:42;;;;;;;6.72;3.40;;;;;;;18.33;70.69;100725.03;1649539;87;21536;-64
2023/06/08 05:00:13;;;;;;;7.42;4.00;;;;;;;18.39;70.37;100723.23;1649637;85;21065;-64
2023/06/08 05:02:44;;;;;;;5.47;3.80;;;;;;;18.44;69.92;100732.21;1650014;87;21062;-66
2023/06/08 05:05:12;;;;;;;4.75;3.87;;;;;;;18.47;69.67;100731.19;1618261;88;21057;-64
2023/06/08 05:07:43;;;;;;;7.12;3.98;;;;;;;18.56;70.32;100727.50;1649888;87;21046;-64
2023/06/08 05:10:13;;;;;;;6.87;4.30;;;;;;;18.63;70.15;100731.87;1649864;87;21201;-65
2023/06/08 05:12:43;;;;;;;7.05;4.45;;;;;;;18.67;69.54;100733.08;1651413;87;21098;-65
2023/06/08 05:15:12;;;;;;;6.58;4.20;;;;;;;18.76;69.15;100736.87;1652553;86;21055;-64
2023/06/08 05:17:41;;;;;;;7.05;4.83;;;;;;;18.80;69.03;100735.30;1652616;87;21034;-64
2023/06/08 05:20:10;;;;;;;7.83;4.28;;;;;;;18.84;68.59;100733.72;1652829;87;21046;-66
2023/06/08 05:22:39;;;;;;;6.33;4.22;;;;;;;18.87;68.27;100741.05;1650295;87;21122;-65
2023/06/08 05:25:09;;;;;;;6.78;4.58;;;;;;;18.90;68.04;100734.16;1649904;85;21051;-65
2023/06/08 05:27:38;;;;;;;10.08;4.72;;;;;;;18.92;68.32;100733.37;1649877;87;21054;-65
2023/06/08 05:30:07;;;;;;;5.50;3.77;;;;;;;18.96;68.45;100735.95;1631725;86;21105;-66
2023/06/08 05:32:36;;;;;;;5.35;4.12;;;;;;;19.00;68.00;100735.77;1649689;87;21161;-64
2023/06/08 05:35:06;;;;;;;5.72;4.22;;;;;;;19.01;67.42;100743.01;1649818;86;21539;-66
2023/06/08 05:37:34;;;;;;;7.25;4.30;;;;;;;19.03;67.18;100742.77;1649982;87;21102;-65
2023/06/08 05:40:04;;;;;;;9.23;4.70;;;;;;;19.03;67.44;100758.04;1649935;87;21022;-63
2023/06/08 05:42:34;;;;;;;8.08;4.90;;;;;;;19.02;66.93;100758.59;1649768;87;21010;-65
2023/06/08 05:45:04;;;;;;;8.10;4.62;;;;;;;19.01;67.52;100759.67;1650010;87;21081;-64
2023/06/08 05:47:33;;;;;;;6.92;4.17;;;;;;;19.02;67.50;100766.07;1649836;87;21069;-65
2023/06/08 05:50:04;;;;;;;7.25;4.15;;;;;;;18.97;67.64;100771.81;1649974;87;21046;-65
2023/06/08 05:52:34;;;;;;;6.33;3.80;;;;;;;18.96;67.86;100773.45;1646254;85;21091;-66
2023/06/08 05:55:04;;;;;;;7.55;4.62;;;;;;;18.94;67.78;100775.08;1645494;87;21061;-65
2023/06/08 05:57:33;;;;;;;8.65;4.87;;;;;;;18.99;67.42;100777.13;1645615;87;21133;-64
2023/06/08 06:00:06;;;;;;;9.05;4.62;;;;;;;19.02;67.42;100784.12;1647642;86;21235;-65
2023/06/08 06:02:39;;;;;;;7.92;4.80;;;;;;;19.03;67.80;100782.49;1645431;86;21074;-65
2023/06/08 06:05:09;;;;;;;6.05;4.03;;;;;;;19.07;67.96;100792.57;1645498;87;21058;-66
2023/06/08 06:07:39;;;;;;;8.48;4.53;;;;;;;19.08;67.87;100789.55;1613263;89;21273;-65
2023/06/08 06:10:08;;;;;;;6.22;4.53;;;;;;;19.12;67.70;100792.68;1613202;89;21173;-64
2023/06/08 06:12:38;;;;;;;11.78;5.50;;;;;;;19.12;67.75;100789.36;1613426;89;21034;-65
2023/06/08 06:15:08;;;;;;;9.23;5.33;;;;;;;19.12;68.01;100785.73;1645219;87;21172;-64
2023/06/08 06:17:38;;;;;;;12.73;5.47;;;;;;;19.14;68.32;100788.57;1645496;86;21056;-66
2023/06/08 06:20:09;;;;;;;8.90;5.37;;;;;;;19.19;68.85;100794.23;1645412;87;21058;-65
2023/06/08 06:22:37;;;;;;;8.78;6.03;;;;;;;19.23;69.31;100797.37;1645530;87;21053;-65
2023/06/08 06:25:10;;;;;;;8.25;5.45;;;;;;;19.28;70.15;100790.53;1645289;87;21143;-67
2023/06/08 06:27:40;;;;;;;7.70;5.70;;;;;;;19.36;70.49;100794.86;1645436;87;21081;-64
2023/06/08 06:30:11;;;;;;;7.72;5.15;;;;;;;19.38;70.99;100787.13;1644932;87;21085;-66
2023/06/08 06:32:40;;;;;;;6.60;4.33;;;;;;;19.42;71.07;100791.09;1645408;87;21489;-65
2023/06/08 06:35:10;;;;;;;8.25;5.05;;;;;;;19.51;70.61;100790.48;1645353;87;21085;-66
2023/06/08 06:37:39;;;;;;;6.72;4.80;;;;;;;19.62;70.86;100792.41;1645311;86;21100;-67
2023/06/08 06:40:09;;;;;;;5.35;4.42;;;;;;;19.77;70.51;100796.03;1645739;87;21108;-65
2023/06/08 06:42:39;;;;;;;7.05;5.37;;;;;;;19.95;69.34;100798.60;1627247;87;21085;-65
2023/06/08 06:45:21;;;;;;;8.13;5.15;;;;;;;20.07;68.25;100792.13;1603804;87;21105;-66
2023/06/08 06:47:51;;;;;;;7.42;4.80;;;;;;;20.10;67.85;100791.62;1645491;87;21073;-66
2023/06/08 06:50:19;;;;;;;10.78;5.80;;;;;;;20.11;67.79;100795.55;1645608;87;21078;-65
2023/06/08 06:52:48;;;;;;;5.65;4.92;;;;;;;20.12;67.30;100794.45;1627151;87;21106;-66
2023/06/08 06:55:18;;;;;;;7.08;4.92;;;;;;;20.15;67.38;100798.12;1680348;85;21088;-65
2023/06/08 06:57:48;;;;;;;6.92;4.92;;;;;;;20.15;67.56;100797.28;1680878;85;21064;-66
2023/06/08 07:00:19;;;;;;;7.00;4.90;;;;;;;20.18;67.25;100800.44;1659879;85;21092;-67
2023/06/08 07:02:48;;;;;;;8.70;5.00;;;;;;;20.13;67.36;100798.92;1680817;85;21076;-65
2023/06/08 07:05:19;;;;;;;7.20;5.25;;;;;;;20.09;67.33;100791.33;1680993;85;21032;-65
2023/06/08 07:07:48;;;;;;;6.83;5.75;;;;;;;20.09;67.49;100795.50;1681095;85;21048;-66
2023/06/08 07:10:17;;;;;;;10.82;6.85;;;;;;;20.10;67.36;100799.42;1662146;85;21203;-66
2023/06/08 07:12:50;;;;;;;10.60;5.50;;;;;;;20.11;67.08;100805.83;1680970;85;21089;-66
2023/06/08 07:15:19;;;;;;;6.72;5.17;;;;;;;20.11;67.35;100797.48;1680862;85;21489;-66
2023/06/08 07:17:48;;;;;;;8.58;5.90;;;;;;;20.17;67.22;100793.73;1680833;85;21025;-66
2023/06/08 07:20:17;;;;;;;8.63;5.25;;;;;;;20.25;66.50;100794.70;1680960;85;21131;-64
2023/06/08 07:22:46;;;;;;;7.60;5.17;;;;;;;20.31;66.19;100796.48;1680956;85;21076;-65
2023/06/08 07:25:19;;;;;;;6.97;5.12;;;;;;;20.38;65.69;100790.75;1647975;87;21071;-65
2023/06/08 07:27:50;;;;;;;12.75;5.37;;;;;;;20.44;64.70;100789.22;1644920;87;21053;-66
2023/06/08 07:30:19;;;;;;;7.10;4.92;;;;;;;20.53;63.97;100789.64;1647658;87;21045;-65
2023/06/08 07:32:49;;;;;;;8.05;5.15;;;;;;;20.56;63.85;100795.54;1631691;87;21069;-65
2023/06/08 07:35:18;;;;;;;8.10;5.03;;;;;;;20.62;63.47;100792.84;1647650;87;21021;-65
2023/06/08 07:37:48;;;;;;;8.78;5.28;;;;;;;20.67;62.77;100791.52;1647472;86;21548;-64
2023/06/08 07:40:17;;;;;;;8.28;5.58;;;;;;;20.66;62.90;100786.50;1647793;87;21072;-65
2023/06/08 07:42:47;;;;;;;8.03;5.10;;;;;;;20.71;62.82;100790.75;1647573;87;21102;-65
2023/06/08 07:45:15;;;;;;;7.65;4.53;;;;;;;20.75;62.15;100793.88;1647563;87;21029;-64
2023/06/08 07:47:44;;;;;;;9.55;4.87;;;;;;;20.81;61.46;100783.98;1647516;87;21461;-64
2023/06/08 07:50:14;;;;;;;7.65;4.62;;;;;;;20.84;61.02;100782.63;1652142;86;21487;-67
2023/06/08 07:52:43;;;;;;;5.95;4.40;;;;;;;20.91;60.98;100774.92;1617112;85;21721;-65
2023/06/08 07:55:14;;;;;;;7.55;4.12;;;;;;;20.98;59.22;100776.97;1639224;86;21557;-66
2023/06/08 07:57:44;;;;;;;7.67;4.50;;;;;;;21.04;59.03;100775.95;1628483;88;21527;-66
2023/06/08 08:00:16;;;;;;;5.53;3.90;;;;;;;21.10;58.40;100781.88;1605771;88;21520;-63
2023/06/08 08:02:45;;;;;;;6.12;4.37;;;;;;;21.14;57.18;100778.87;1603062;89;21047;-65
2023/06/08 08:05:14;;;;;;;6.58;3.70;;;;;;;21.10;56.61;100776.30;1603141;89;21103;-62
2023/06/08 08:07:44;;;;;;;7.75;3.92;;;;;;;21.10;56.25;100777.70;1606165;88;21075;-65
2023/06/08 08:10:15;;;;;;;7.83;4.05;;;;;;;21.11;56.50;100782.17;1632372;88;21519;-65
2023/06/08 08:12:43;;;;;;;7.72;4.55;;;;;;;21.12;55.64;100777.44;1632683;88;21074;-65
2023/06/08 08:15:12;;;;;;;6.75;4.00;;;;;;;21.12;55.31;100780.23;1632597;88;21083;-65
2023/06/08 08:17:41;;;;;;;7.35;3.92;;;;;;;21.11;55.65;100779.38;1632675;88;21086;-68
2023/06/08 08:20:11;;;;;;;8.35;4.35;;;;;;;21.12;55.51;100782.47;1632580;88;21142;-64
2023/06/08 08:22:40;;;;;;;7.28;4.95;;;;;;;21.13;55.47;100786.94;1632785;88;21079;-65
2023/06/08 08:25:09;;;;;;;7.25;4.75;;;;;;;21.14;55.58;100787.23;1639102;86;21107;-67
2023/06/08 08:27:38;;;;;;;6.75;4.58;;;;;;;21.14;55.23;100787.78;1628619;88;21075;-64
2023/06/08 08:30:07;;;;;;;6.78;4.37;;;;;;;21.10;55.38;100783.27;1641953;87;21067;-66
2023/06/08 08:32:37;;;;;;;8.38;4.62;;;;;;;21.11;55.67;100791.08;1642214;87;21040;-68
2023/06/08 08:35:08;;;;;;;7.90;4.90;;;;;;;21.13;55.72;100790.27;1644103;87;21082;-65
2023/06/08 08:37:37;;;;;;;7.70;4.45;;;;;;;21.16;55.77;100787.81;1631170;88;21525;-66
2023/06/08 08:40:09;;;;;;;7.67;4.62;;;;;;;21.21;55.87;100789.27;1631516;88;21087;-66
2023/06/08 08:42:54;;;;;;;6.65;4.17;;;;;;;21.29;56.04;100789.41;1630071;87;21560;-66
2023/06/08 08:45:23;;;;;;;6.50;4.20;;;;;;;21.37;55.72;100789.50;1628404;88;21105;-65
2023/06/08 08:47:53;;;;;;;5.53;4.05;;;;;;;21.39;55.40;100792.87;1642206;87;21131;-65
2023/06/08 08:50:22;;;;;;;10.70;4.45;;;;;;;21.39;55.56;100791.48;1642187;87;21146;-65
2023/06/08 08:52:53;;;;;;;7.15;4.37;;;;;;;21.42;55.56;100800.72;1639881;86;21236;-65
2023/06/08 08:55:27;;;;;;;6.55;4.20;;;;;;;21.43;55.41;100794.04;1650671;86;21156;-65
2023/06/08 08:57:58;;;;;;;5.60;4.10;;;;;;;21.45;55.32;100792.67;1640876;87;21456;-66
2023/06/08 09:00:27;;;;;;;8.33;4.17;;;;;;;21.44;55.57;100786.80;1654866;85;21027;-68
2023/06/08 09:02:56;;;;;;;8.43;4.20;;;;;;;21.46;55.27;100785.19;1705651;84;21049;-65
2023/06/08 09:05:25;;;;;;;8.73;4.12;;;;;;;21.44;55.23;100787.36;1681454;84;21092;-65
2023/06/08 09:07:59;;;;;;;6.35;4.25;;;;;;;21.44;55.62;100784.56;1683070;84;21016;-65
2023/06/08 09:10:26;;;;;;;7.87;4.25;;;;;;;21.43;55.53;100789.30;1704249;84;21463;-64
2023/06/08 09:12:56;;;;;;;7.53;4.40;;;;;;;21.47;55.26;100782.69;1704407;84;21016;-66
2023/06/08 09:15:34;;;;;;;4.80;4.17;;;;;;;21.54;55.29;100786.67;1704429;83;21035;-69
2023/06/08 09:18:17;;;;;;;6.37;4.10;;;;;;;21.59;55.37;100773.63;1683530;84;21049;-67
2023/06/08 09:20:46;;;;;;;9.45;4.65;;;;;;;21.65;55.49;100783.73;1679264;85;21037;-68
2023/06/08 09:23:24;;;;;;;10.38;4.72;;;;;;;21.74;55.06;100782.72;1679391;85;21037;-68
2023/06/08 09:25:51;;;;;;;6.10;4.87;;;;;;;21.82;54.73;100780.30;1678384;85;21063;-66
2023/06/08 09:28:28;;;;;;;8.03;4.28;;;;;;;21.95;54.37;100785.16;1678913;85;21097;-65
2023/06/08 09:30:57;;;;;;;7.87;3.87;;;;;;;22.04;54.07;100783.61;1679328;85;21069;-66
2023/06/08 09:33:29;;;;;;;5.85;4.62;;;;;;;22.12;53.58;100779.82;1683319;84;21089;-65
2023/06/08 09:36:02;;;;;;;4.85;4.35;;;;;;;22.18;53.13;100779.31;1709215;84;21048;-66
2023/06/08 09:38:32;;;;;;;6.85;4.90;;;;;;;22.23;52.99;100784.09;1708983;84;21104;-65
2023/06/08 09:41:17;;;;;;;5.87;4.70;;;;;;;22.23;52.59;100775.17;1708974;84;21025;-67
2023/06/08 09:43:48;;;;;;;5.65;4.15;;;;;;;22.20;52.18;100778.49;1709045;84;21041;-65
2023/06/08 09:46:38;;;;;;;5.70;3.90;;;;;;;22.17;52.50;100776.78;1708929;84;21449;-66
2023/06/08 09:49:07;;;;;;;5.12;3.60;;;;;;;22.21;52.30;100769.56;1708982;83;21476;-65
2023/06/08 09:51:36;;;;;;;4.28;3.55;;;;;;;22.26;52.05;100767.66;1709310;83;21044;-67
2023/06/08 09:54:08;;;;;;;4.95;3.75;;;;;;;22.28;51.82;100775.21;1677914;83;21097;-65
2023/06/08 09:56:40;;;;;;;8.48;4.08;;;;;;;22.32;51.88;100769.94;1672375;85;21140;-67
2023/06/08 09:59:09;;;;;;;6.45;4.70;;;;;;;22.36;51.47;100773.33;1663975;85;21504;-67
2023/06/08 10:01:51;;;;;;;6.42;4.12;;;;;;;22.36;50.87;100780.86;1627223;87;21099;-65
2023/06/08 10:04:23;;;;;;;7.15;4.05;;;;;;;22.27;50.82;100766.55;1628960;88;21130;-65
2023/06/08 10:06:57;;;;;;;7.50;3.77;;;;;;;22.24;51.08;100771.27;1628158;88;21063;-66
2023/06/08 10:09:29;;;;;;;6.12;4.40;;;;;;;22.20;51.08;100765.09;1608716;89;21101;-66
2023/06/08 10:12:02;;;;;;;6.40;4.40;;;;;;;22.18;51.44;100765.36;1573639;89;21075;-66
2023/06/08 10:14:31;;;;;;;8.83;4.75;;;;;;;22.27;51.72;100767.10;1643539;87;21564;-65
2023/06/08 10:17:00;;;;;;;5.67;4.10;;;;;;;22.43;51.88;100761.38;1643976;86;21113;-66
2023/06/08 10:19:32;;;;;;;8.98;4.78;;;;;;;22.57;50.93;100758.96;1646049;87;21057;-66
2023/06/08 10:22:01;;;;;;;5.90;4.03;;;;;;;22.69;50.89;100761.55;1644612;87;21129;-67
2023/06/08 10:24:30;;;;;;;5.45;3.90;;;;;;;22.81;50.46;100760.86;1643560;87;21207;-66
2023/06/08 10:27:28;;;;;;;7.35;4.00;;;;;;;22.92;49.92;100752.82;1643976;87;21069;-66
2023/06/08 10:30:00;;;;;;;7.15;4.03;;;;;;;23.01;49.51;100748.95;1643884;87;21547;-65
2023/06/08 10:32:39;;;;;;;8.03;4.42;;;;;;;23.14;49.73;100743.42;1643631;87;21089;-65
2023/06/08 10:35:10;;;;;;;7.00;4.70;;;;;;;23.24;49.59;100747.10;1643660;87;21128;-65
2023/06/08 10:37:41;;;;;;;6.65;4.08;;;;;;;23.31;49.41;100737.06;1625723;87;21156;-64
2023/06/08 10:40:11;;;;;;;6.15;3.83;;;;;;;23.38;49.14;100741.84;1625941;87;21112;-65
2023/06/08 10:42:58;;;;;;;6.37;4.00;;;;;;;23.41;48.27;100737.12;1645137;86;21069;-67
2023/06/08 10:45:33;;;;;;;8.63;3.83;;;;;;;23.43;48.03;100743.29;1623715;87;21532;-66
2023/06/08 10:48:08;;;;;;;8.80;3.90;;;;;;;23.41;47.23;100737.12;1643915;86;21093;-66
2023/06/08 10:50:54;;;;;;;8.70;4.37;;;;;;;23.37;46.96;100742.95;1641957;86;21133;-66
2023/06/08 10:53:57;;;;;;;6.80;3.70;;;;;;;23.33;46.54;100741.27;1639364;86;21497;-65
2023/06/08 10:56:27;;;;;;;8.28;4.42;;;;;;;23.31;46.14;100739.30;1637327;87;21074;-65
2023/06/08 10:58:56;;;;;;;10.93;4.20;;;;;;;23.27;46.10;100733.13;1648899;85;21097;-63
2023/06/08 11:01:39;;;;;;;6.85;3.55;;;;;;;23.20;45.82;100746.52;1684381;85;21052;-65
2023/06/08 11:04:22;;;;;;;8.18;3.70;;;;;;;23.11;46.00;100746.77;1600800;89;21134;-62
2023/06/08 11:06:52;;;;;;;7.10;3.60;;;;;;;22.97;45.93;100743.06;1565604;91;21075;-64
2023/06/08 11:09:21;;;;;;;4.58;3.60;;;;;;;22.93;46.46;100735.50;1540746;92;21147;-65
2023/06/08 11:11:51;;;;;;;7.17;3.62;;;;;;;22.96;46.39;100740.54;1555020;91;21108;-66
2023/06/08 11:14:20;;;;;;;5.72;3.50;;;;;;;22.96;45.98;100734.39;1586599;90;21123;-63
2023/06/08 11:16:51;;;;;;;6.80;3.55;;;;;;;22.92;46.35;100731.02;1587295;90;21539;-64
2023/06/08 11:19:22;;;;;;;7.12;3.92;;;;;;;22.97;46.67;100727.69;1587006;90;21592;-64
2023/06/08 11:21:53;;;;;;;9.73;4.37;;;;;;;23.04;46.80;100726.89;1609235;85;21053;-64
2023/06/08 11:24:27;;;;;;;7.87;4.30;;;;;;;23.13;46.64;100730.00;1676645;85;21590;-64
2023/06/08 11:27:00;;;;;;;5.08;3.90;;;;;;;23.19;46.74;100721.08;1676982;85;21504;-66
2023/06/08 11:29:39;;;;;;;10.03;4.28;;;;;;;23.23;46.74;100717.46;1677034;85;21029;-65
2023/06/08 11:32:13;;;;;;;6.15;4.17;;;;;;;23.29;46.90;100714.13;1677082;85;21519;-66
2023/06/08 11:34:45;;;;;;;7.17;4.22;;;;;;;23.36;47.14;100715.55;1677052;85;21049;-66
2023/06/08 11:37:18;;;;;;;8.93;4.50;;;;;;;23.42;47.23;100709.44;1676942;84;21469;-67
2023/06/08 11:39:47;;;;;;;6.75;4.45;;;;;;;23.47;47.07;100709.45;1677288;85;21046;-66
2023/06/08 11:42:17;;;;;;;6.87;4.40;;;;;;;23.51;46.86;100713.94;1676425;85;21104;-64